createdAt,value
2023-01-29T00:02:48.442Z,1.71
2023-01-29T00:05:51.179Z,1.71
2023-01-29T00:08:53.959Z,1.67
2023-01-29T00:11:58.030Z,1.70
2023-01-29T00:15:02.933Z,1.66
2023-01-29T00:18:06.310Z,1.71
2023-01-29T00:21:10.950Z,1.66
2023-01-29T00:24:14.056Z,1.67
2023-01-29T00:27:18.142Z,1.66
2023-01-29T00:30:21.430Z,1.63
2023-01-29T00:33:24.304Z,1.62
2023-01-29T00:36:28.010Z,1.56
2023-01-29T00:39:47.391Z,1.60
2023-01-29T00:43:10.013Z,1.62
2023-01-29T00:46:12.764Z,1.58
2023-01-29T00:49:16.826Z,1.66
2023-01-29T00:52:25.689Z,1.66
2023-01-29T00:55:28.506Z,1.65
2023-01-29T00:58:34.613Z,1.53
2023-01-29T01:02:09.221Z,1.58
2023-01-29T01:05:18.004Z,1.62
2023-01-29T01:08:37.535Z,1.63
2023-01-29T01:11:40.367Z,1.60
2023-01-29T01:14:46.013Z,1.58
2023-01-29T01:17:49.606Z,1.61
2023-01-29T01:20:59.540Z,1.48
2023-01-29T01:24:05.761Z,1.47
2023-01-29T01:27:08.699Z,1.42
2023-01-29T01:30:14.927Z,1.48
2023-01-29T01:33:18.477Z,1.49
2023-01-29T01:36:21.519Z,1.46
2023-01-29T01:39:25.177Z,1.53
2023-01-29T01:42:31.173Z,1.51
2023-01-29T01:45:37.112Z,1.63
2023-01-29T01:48:40.013Z,1.62
2023-01-29T01:51:46.242Z,1.57
2023-01-29T01:54:50.110Z,1.51
2023-01-29T01:57:56.760Z,1.46
2023-01-29T02:01:02.094Z,1.38
2023-01-29T02:04:25.868Z,1.42
2023-01-29T02:07:46.331Z,1.36
2023-01-29T02:10:49.954Z,1.38
2023-01-29T02:13:54.588Z,1.47
2023-01-29T02:16:58.877Z,1.46
2023-01-29T02:20:09.758Z,1.39
2023-01-29T02:23:30.844Z,1.33
2023-01-29T02:26:56.793Z,1.30
2023-01-29T02:30:07.206Z,1.21
2023-01-29T02:33:22.225Z,1.28
2023-01-29T02:36:33.655Z,1.33
2023-01-29T02:39:41.285Z,1.27
2023-01-29T02:42:51.939Z,1.26
2023-01-29T02:46:02.756Z,1.19
2023-01-29T02:49:12.052Z,1.15
2023-01-29T02:52:19.024Z,1.21
2023-01-29T02:55:27.427Z,1.25
2023-01-29T02:58:34.467Z,1.28
2023-01-29T03:01:45.990Z,1.21
2023-01-29T03:04:55.384Z,1.26
2023-01-29T03:08:03.950Z,1.26
2023-01-29T03:11:08.030Z,1.28
2023-01-29T03:14:16.933Z,1.20
2023-01-29T03:17:22.269Z,1.30
2023-01-29T03:20:32.088Z,1.30
2023-01-29T03:23:54.821Z,1.32
2023-01-29T03:27:19.871Z,1.37
2023-01-29T03:30:43.915Z,1.40
2023-01-29T03:33:51.992Z,1.14
2023-01-29T03:36:58.967Z,1.05
2023-01-29T03:40:02.775Z,1.03
2023-01-29T03:43:12.114Z,1.02
2023-01-29T03:46:23.327Z,1.04
2023-01-29T03:49:44.862Z,1.08
2023-01-29T03:52:52.930Z,1.12
2023-01-29T03:56:02.134Z,0.99
2023-01-29T03:59:15.594Z,1.05
2023-01-29T04:02:28.093Z,1.07
2023-01-29T04:05:41.028Z,1.00
2023-01-29T04:08:52.489Z,1.06
2023-01-29T04:12:02.031Z,1.01
2023-01-29T04:15:10.442Z,1.00
2023-01-29T04:18:15.521Z,1.12
2023-01-29T04:21:20.393Z,1.12
2023-01-29T04:24:23.272Z,1.10
2023-01-29T04:27:36.814Z,1.07
2023-01-29T04:30:48.370Z,0.99
2023-01-29T04:33:58.839Z,0.92
2023-01-29T04:37:13.741Z,0.91
2023-01-29T04:40:21.914Z,0.96
2023-01-29T04:43:29.875Z,0.99
2023-01-29T04:46:40.428Z,1.02
2023-01-29T04:49:50.589Z,1.07
2023-01-29T04:53:00.846Z,1.06
2023-01-29T04:56:10.351Z,1.16
2023-01-29T04:59:18.787Z,1.13
2023-01-29T05:02:25.602Z,1.03
2023-01-29T05:05:30.219Z,0.95
2023-01-29T05:08:37.905Z,1.03
2023-01-29T05:11:40.939Z,0.97
2023-01-29T05:14:46.439Z,0.98
2023-01-29T05:17:49.100Z,0.95
2023-01-29T05:20:54.102Z,0.86
2023-01-29T05:24:16.558Z,0.87
2023-01-29T05:27:39.992Z,0.91
2023-01-29T05:30:43.386Z,0.81
2023-01-29T05:33:46.182Z,0.84
2023-01-29T05:36:48.961Z,0.86
2023-01-29T05:39:53.152Z,0.83
2023-01-29T05:42:55.919Z,0.76
2023-01-29T05:46:00.366Z,0.89
2023-01-29T05:49:03.059Z,0.92
2023-01-29T05:52:05.970Z,0.91
2023-01-29T05:55:11.501Z,0.97
2023-01-29T05:58:14.746Z,0.93
2023-01-29T06:01:19.827Z,0.84
2023-01-29T06:04:22.662Z,0.79
2023-01-29T06:07:25.550Z,0.90
2023-01-29T06:10:29.741Z,0.84
2023-01-29T06:13:32.456Z,0.87
2023-01-29T06:16:35.276Z,0.84
2023-01-29T06:19:38.074Z,0.86
2023-01-29T06:22:41.155Z,0.86
2023-01-29T06:25:45.231Z,0.87
2023-01-29T06:28:50.362Z,0.93
2023-01-29T06:31:53.136Z,0.80
2023-01-29T06:34:55.883Z,0.69
2023-01-29T06:37:58.595Z,0.72
2023-01-29T06:41:10.808Z,0.65
2023-01-29T06:44:13.700Z,0.75
2023-01-29T06:47:16.561Z,0.79
2023-01-29T06:50:19.591Z,0.70
2023-01-29T06:53:22.469Z,0.71
2023-01-29T06:56:26.635Z,0.76
2023-01-29T06:59:30.001Z,0.86
2023-01-29T07:02:35.738Z,0.85
2023-01-29T07:05:38.775Z,0.86
2023-01-29T07:08:42.078Z,0.87
2023-01-29T07:11:46.247Z,0.90
2023-01-29T07:14:49.213Z,0.77
2023-01-29T07:17:59.718Z,0.76
2023-01-29T07:21:06.861Z,0.77
2023-01-29T07:24:10.140Z,0.82
2023-01-29T07:27:14.249Z,0.84
2023-01-29T07:30:18.779Z,0.89
2023-01-29T07:33:21.868Z,0.94
2023-01-29T07:36:25.237Z,1.01
2023-01-29T07:39:28.184Z,1.03
2023-01-29T07:42:32.522Z,1.08
2023-01-29T07:45:36.316Z,1.14
2023-01-29T07:48:39.123Z,1.17
2023-01-29T07:51:41.931Z,1.26
2023-01-29T07:54:44.807Z,1.17
2023-01-29T07:57:49.111Z,1.13
2023-01-29T08:00:51.856Z,1.18
2023-01-29T08:03:54.559Z,1.15
2023-01-29T08:06:57.349Z,1.18
2023-01-29T08:10:00.025Z,1.22
2023-01-29T08:13:05.429Z,1.25
2023-01-29T08:16:09.212Z,1.26
2023-01-29T08:19:11.921Z,1.32
2023-01-29T08:22:15.288Z,1.46
2023-01-29T08:25:18.036Z,1.59
2023-01-29T08:28:22.222Z,1.52
2023-01-29T08:31:24.927Z,1.47
2023-01-29T08:34:27.613Z,1.42
2023-01-29T08:37:30.257Z,1.30
2023-01-29T08:40:34.408Z,1.39
2023-01-29T08:43:38.672Z,1.38
2023-01-29T08:46:41.729Z,1.35
2023-01-29T08:49:44.342Z,1.36
2023-01-29T08:52:47.107Z,1.41
2023-01-29T08:55:49.780Z,1.45
2023-01-29T08:58:54.123Z,1.56
2023-01-29T09:01:56.787Z,1.58
2023-01-29T09:04:59.430Z,1.60
2023-01-29T09:08:02.093Z,1.63
2023-01-29T09:11:04.817Z,1.69
2023-01-29T09:14:09.740Z,1.65
2023-01-29T09:17:12.432Z,1.80
2023-01-29T09:20:15.539Z,1.86
2023-01-29T09:23:18.298Z,1.94
2023-01-29T09:26:20.963Z,1.95
2023-01-29T09:29:25.062Z,1.93
2023-01-29T09:32:59.958Z,1.95
2023-01-29T09:35:52.999Z,2.02
2023-01-29T09:38:55.727Z,2.15
2023-01-29T09:42:03.627Z,2.25
2023-01-29T09:45:13.936Z,2.34
2023-01-29T09:48:17.676Z,2.39
2023-01-29T09:51:28.521Z,2.52
2023-01-29T09:54:36.949Z,2.53
2023-01-29T09:57:46.768Z,2.74
2023-01-29T10:01:00.236Z,2.91
2023-01-29T10:04:19.713Z,3.13
2023-01-29T10:07:37.782Z,3.35
2023-01-29T10:10:50.203Z,3.44
2023-01-29T10:14:05.304Z,3.43
2023-01-29T10:17:29.358Z,3.47
2023-01-29T10:20:48.907Z,3.30
2023-01-29T10:23:55.164Z,3.36
2023-01-29T10:26:59.217Z,3.55
2023-01-29T10:30:05.836Z,3.57
2023-01-29T10:33:18.488Z,3.53
2023-01-29T10:36:27.688Z,3.40
2023-01-29T10:39:32.022Z,3.34
2023-01-29T10:42:41.215Z,3.32
2023-01-29T10:45:50.512Z,3.26
2023-01-29T10:49:06.693Z,3.29
2023-01-29T10:52:22.499Z,3.25
2023-01-29T10:55:40.871Z,3.28
2023-01-29T10:58:50.105Z,3.37
2023-01-29T11:01:53.190Z,3.33
2023-01-29T11:04:57.304Z,3.37
2023-01-29T11:08:09.601Z,3.39
2023-01-29T11:11:15.843Z,3.36
2023-01-29T11:14:23.903Z,3.31
2023-01-29T11:17:27.419Z,3.41
2023-01-29T11:20:33.873Z,3.49
2023-01-29T11:23:38.909Z,3.36
2023-01-29T11:26:44.146Z,3.39
2023-01-29T11:29:49.910Z,3.36
2023-01-29T11:33:08.786Z,3.36
2023-01-29T11:36:33.983Z,3.34
2023-01-29T11:39:44.961Z,3.40
2023-01-29T11:42:48.139Z,3.38
2023-01-29T11:45:52.962Z,3.47
2023-01-29T11:48:59.275Z,3.62
2023-01-29T11:52:11.302Z,3.71
2023-01-29T11:55:19.339Z,3.83
2023-01-29T11:58:28.726Z,4.01
2023-01-29T12:01:34.471Z,4.18
2023-01-29T12:04:40.937Z,4.24
2023-01-29T12:07:46.409Z,4.51
2023-01-29T12:10:49.041Z,4.99
2023-01-29T12:13:55.382Z,5.24
2023-01-29T12:17:03.044Z,5.71
2023-01-29T12:20:13.832Z,6.31
2023-01-29T12:23:26.742Z,6.87
2023-01-29T12:26:33.800Z,7.50
2023-01-29T12:29:46.426Z,8.11
2023-01-29T12:32:55.567Z,8.28
2023-01-29T12:36:06.586Z,8.47
2023-01-29T12:39:16.037Z,8.45
2023-01-29T12:42:22.488Z,8.17
2023-01-29T12:45:28.134Z,8.40
2023-01-29T12:48:34.796Z,8.60
2023-01-29T12:51:45.109Z,8.25
2023-01-29T12:54:55.413Z,7.95
2023-01-29T12:58:00.493Z,7.57
2023-01-29T13:01:09.758Z,6.88
2023-01-29T13:04:20.287Z,6.61
2023-01-29T13:07:30.802Z,6.38
2023-01-29T13:10:39.558Z,6.38
2023-01-29T13:13:55.012Z,6.63
2023-01-29T13:17:10.232Z,7.10
2023-01-29T13:20:18.676Z,7.87
2023-01-29T13:23:23.567Z,8.64
2023-01-29T13:26:28.083Z,8.65
2023-01-29T13:29:32.041Z,7.99
2023-01-29T13:32:36.797Z,7.47
2023-01-29T13:35:41.747Z,7.03
2023-01-29T13:38:45.323Z,6.66
2023-01-29T13:41:51.960Z,6.42
2023-01-29T13:44:57.299Z,6.26
2023-01-29T13:48:10.899Z,6.20
2023-01-29T13:51:19.579Z,5.75
2023-01-29T13:54:25.702Z,5.58
2023-01-29T13:57:51.590Z,5.19
2023-01-29T14:00:55.411Z,5.31
2023-01-29T14:04:06.024Z,5.19
2023-01-29T14:07:49.915Z,5.15
2023-01-29T14:11:34.387Z,4.99
2023-01-29T14:15:22.122Z,4.95
2023-01-29T14:18:27.037Z,4.86
2023-01-29T14:21:33.108Z,4.80
2023-01-29T14:24:37.481Z,4.72
2023-01-29T14:27:40.180Z,4.59
2023-01-29T14:30:45.766Z,4.54
2023-01-29T14:33:48.458Z,4.27
2023-01-29T14:36:55.517Z,4.18
2023-01-29T14:40:08.994Z,4.14
2023-01-29T14:43:19.971Z,4.10
2023-01-29T14:46:46.030Z,4.04
2023-01-29T14:49:54.185Z,3.98
2023-01-29T14:53:02.531Z,3.83
2023-01-29T14:56:15.236Z,3.79
2023-01-29T14:59:21.837Z,3.78
2023-01-29T15:02:27.626Z,3.58
2023-01-29T15:05:33.533Z,3.46
2023-01-29T15:08:41.753Z,3.53
2023-01-29T15:11:58.911Z,3.62
2023-01-29T15:15:08.876Z,3.49
2023-01-29T15:18:18.351Z,3.30
2023-01-29T15:21:21.178Z,3.25
2023-01-29T15:24:23.835Z,3.26
2023-01-29T15:27:28.914Z,3.21
2023-01-29T15:30:35.090Z,3.01
2023-01-29T15:33:38.649Z,3.00
2023-01-29T15:36:41.383Z,2.86
2023-01-29T15:39:45.024Z,2.90
2023-01-29T15:42:49.295Z,2.79
2023-01-29T15:45:52.879Z,2.70
2023-01-29T15:48:57.331Z,2.64
2023-01-29T15:52:03.988Z,2.67
2023-01-29T15:55:08.575Z,2.62
2023-01-29T15:58:18.226Z,2.46
2023-01-29T16:01:21.613Z,2.43
2023-01-29T16:04:28.803Z,2.48
2023-01-29T16:07:32.550Z,2.60
2023-01-29T16:10:35.428Z,2.47
2023-01-29T16:13:43.237Z,2.33
2023-01-29T16:16:46.086Z,2.28
2023-01-29T16:19:57.284Z,2.04
2023-01-29T16:23:01.067Z,1.79
2023-01-29T16:26:07.946Z,1.88
2023-01-29T16:29:15.018Z,1.86
2023-01-29T16:32:18.227Z,1.94
2023-01-29T16:35:21.147Z,1.89
2023-01-29T16:38:32.150Z,1.82
2023-01-29T16:41:37.598Z,1.71
2023-01-29T16:44:47.274Z,1.55
2023-01-29T16:48:01.497Z,1.51
2023-01-29T16:51:06.399Z,1.44
2023-01-29T16:54:16.032Z,1.35
2023-01-29T16:57:23.233Z,1.56
2023-01-29T17:00:29.657Z,1.63
2023-01-29T17:03:35.403Z,1.63
2023-01-29T17:06:39.360Z,1.53
2023-01-29T17:09:42.443Z,1.30
2023-01-29T17:12:54.533Z,1.26
2023-01-29T17:16:03.326Z,1.13
2023-01-29T17:19:18.030Z,1.21
2023-01-29T17:22:20.683Z,1.21
2023-01-29T17:25:23.900Z,1.30
2023-01-29T17:28:26.636Z,1.12
2023-01-29T17:31:31.720Z,1.03
2023-01-29T17:34:34.432Z,0.98
2023-01-29T17:37:37.062Z,0.95
2023-01-29T17:40:43.691Z,0.83
2023-01-29T17:43:46.681Z,0.82
2023-01-29T17:46:50.920Z,0.75
2023-01-29T17:49:53.566Z,0.69
2023-01-29T17:52:56.226Z,0.66
2023-01-29T17:55:58.942Z,0.60
2023-01-29T17:59:01.925Z,0.51
2023-01-29T18:02:06.226Z,0.48
2023-01-29T18:05:09.446Z,0.48
2023-01-29T18:08:17.463Z,0.46
2023-01-29T18:11:20.247Z,0.53
2023-01-29T18:14:22.964Z,0.48
2023-01-29T18:17:26.999Z,0.41
2023-01-29T18:20:30.181Z,0.30
2023-01-29T18:23:35.340Z,0.30
2023-01-29T18:26:39.426Z,0.30
2023-01-29T18:29:42.203Z,0.23
2023-01-29T18:32:47.568Z,0.19
2023-01-29T18:35:50.283Z,0.17
2023-01-29T18:38:52.939Z,0.22
2023-01-29T18:41:55.595Z,0.19
2023-01-29T18:44:58.298Z,0.21
2023-01-29T18:48:02.407Z,0.25
2023-01-29T18:51:05.505Z,0.26
2023-01-29T18:54:08.141Z,0.29
2023-01-29T18:57:13.747Z,0.31
2023-01-29T19:00:17.819Z,0.19
2023-01-29T19:03:21.935Z,0.12
2023-01-29T19:06:26.129Z,0.08
2023-01-29T19:09:28.814Z,-0.03
2023-01-29T19:12:31.716Z,0.00
2023-01-29T19:15:37.983Z,0.00
2023-01-29T19:18:42.394Z,0.00
2023-01-29T19:21:45.422Z,-0.04
2023-01-29T19:24:48.167Z,-0.01
2023-01-29T19:27:50.828Z,-0.12
2023-01-29T19:30:53.496Z,-0.13
2023-01-29T19:33:57.945Z,-0.13
2023-01-29T19:37:00.872Z,-0.16
2023-01-29T19:40:03.554Z,-0.24
2023-01-29T19:43:06.309Z,-0.32
2023-01-29T19:46:09.229Z,-0.33
2023-01-29T19:49:13.331Z,-0.42
2023-01-29T19:52:49.707Z,-0.38
2023-01-29T19:56:00.442Z,-0.42
2023-01-29T19:59:03.148Z,-0.38
2023-01-29T20:02:05.801Z,-0.39
2023-01-29T20:05:12.027Z,-0.43
2023-01-29T20:08:14.728Z,-0.49
2023-01-29T20:11:19.147Z,-0.50
2023-01-29T20:14:22.073Z,-0.44
2023-01-29T20:17:24.734Z,-0.56
2023-01-29T20:20:28.995Z,-0.58
2023-01-29T20:23:38.203Z,-0.58
2023-01-29T20:26:41.323Z,-0.66
2023-01-29T20:29:45.251Z,-0.67
2023-01-29T20:32:48.310Z,-0.86
2023-01-29T20:36:16.128Z,-0.73
2023-01-29T20:40:00.265Z,-0.69
2023-01-29T20:43:46.271Z,-0.70
2023-01-29T20:52:18.221Z,-0.92
2023-01-29T20:56:09.423Z,-0.83
2023-01-29T21:16:44.739Z,-0.89
2023-01-29T21:20:15.176Z,-0.94
2023-01-29T21:24:00.047Z,-0.96
2023-01-29T21:27:26.666Z,-0.98
2023-01-29T21:31:07.938Z,-0.99
2023-01-29T21:35:00.016Z,-0.97
2023-01-29T21:42:36.760Z,-1.11
2023-01-29T21:46:33.236Z,-1.08
2023-01-29T21:50:44.154Z,-0.99
2023-01-29T21:54:42.529Z,-1.20
2023-01-29T21:58:30.288Z,-1.13
2023-01-29T22:02:23.348Z,-1.04
2023-01-29T22:05:48.146Z,-1.06
2023-01-29T22:09:31.280Z,-1.13
2023-01-29T22:17:39.845Z,-1.15
2023-01-29T22:21:00.438Z,-1.14
2023-01-29T22:24:23.501Z,-1.23
2023-01-29T22:28:04.937Z,-1.10
2023-01-29T22:40:24.013Z,-1.27
2023-01-29T22:47:21.834Z,-1.42
2023-01-29T22:50:50.001Z,-1.30
2023-01-29T22:54:44.652Z,-1.34
2023-01-29T22:58:01.615Z,-1.42
2023-01-29T23:05:06.801Z,-1.43
2023-01-29T23:08:33.327Z,-1.45
2023-01-29T23:16:40.232Z,-1.43
2023-01-29T23:19:54.315Z,-1.45
2023-01-29T23:23:09.166Z,-1.40
2023-01-29T23:27:06.626Z,-1.29
2023-01-29T23:30:14.323Z,-1.20
2023-01-29T23:33:22.772Z,-1.19
2023-01-29T23:36:29.724Z,-1.21
2023-01-29T23:39:41.220Z,-1.24
2023-01-29T23:42:48.066Z,-1.18
2023-01-29T23:45:55.297Z,-1.18
2023-01-29T23:49:08.346Z,-1.09
2023-01-29T23:52:16.961Z,-1.03
2023-01-29T23:55:24.035Z,-1.00
2023-01-29T23:58:34.490Z,-0.97
